sensor_id;sensor_type;location;lat;lon;timestamp;P1;durP1;ratioP1;P2;durP2;ratioP2
46407;SDS011;32110;45.724;21.276;2024-02-28T00:01:49;18.67;;;8.68;;
46407;SDS011;32110;45.724;21.276;2024-02-28T00:04:15;17.15;;;8.75;;
46407;SDS011;32110;45.724;21.276;2024-02-28T00:06:41;21.02;;;8.82;;
46407;SDS011;32110;45.724;21.276;2024-02-28T00:09:07;17.40;;;8.13;;
46407;SDS011;32110;45.724;21.276;2024-02-28T00:11:32;16.23;;;7.97;;
46407;SDS011;32110;45.724;21.276;2024-02-28T00:13:57;18.63;;;7.90;;
46407;SDS011;32110;45.724;21.276;2024-02-28T00:16:25;15.15;;;7.72;;
46407;SDS011;32110;45.724;21.276;2024-02-28T00:18:50;17.77;;;8.63;;
46407;SDS011;32110;45.724;21.276;2024-02-28T00:21:15;17.77;;;8.02;;
46407;SDS011;32110;45.724;21.276;2024-02-28T00:23:41;15.55;;;8.15;;
46407;SDS011;32110;45.724;21.276;2024-02-28T00:26:07;16.98;;;8.80;;
46407;SDS011;32110;45.724;21.276;2024-02-28T00:28:32;19.38;;;8.60;;
46407;SDS011;32110;45.724;21.276;2024-02-28T00:30:57;22.10;;;9.13;;
46407;SDS011;32110;45.724;21.276;2024-02-28T00:33:22;17.17;;;9.43;;
46407;SDS011;32110;45.724;21.276;2024-02-28T00:35:48;26.00;;;11.23;;
46407;SDS011;32110;45.724;21.276;2024-02-28T00:38:13;21.05;;;10.73;;
46407;SDS011;32110;45.724;21.276;2024-02-28T00:40:39;20.55;;;9.85;;
46407;SDS011;32110;45.724;21.276;2024-02-28T00:43:04;21.23;;;10.10;;
46407;SDS011;32110;45.724;21.276;2024-02-28T00:45:30;19.92;;;9.65;;
46407;SDS011;32110;45.724;21.276;2024-02-28T00:47:55;18.65;;;10.10;;
46407;SDS011;32110;45.724;21.276;2024-02-28T00:50:20;22.58;;;10.50;;
46407;SDS011;32110;45.724;21.276;2024-02-28T00:52:46;25.58;;;11.18;;
46407;SDS011;32110;45.724;21.276;2024-02-28T00:55:11;27.73;;;10.38;;
46407;SDS011;32110;45.724;21.276;2024-02-28T00:57:36;20.33;;;10.35;;
46407;SDS011;32110;45.724;21.276;2024-02-28T01:00:02;20.77;;;10.07;;
46407;SDS011;32110;45.724;21.276;2024-02-28T01:02:27;18.77;;;9.20;;
46407;SDS011;32110;45.724;21.276;2024-02-28T01:04:53;22.17;;;9.38;;
46407;SDS011;32110;45.724;21.276;2024-02-28T01:07:18;23.60;;;9.80;;
46407;SDS011;32110;45.724;21.276;2024-02-28T01:09:43;22.20;;;10.17;;
46407;SDS011;32110;45.724;21.276;2024-02-28T01:12:09;17.13;;;10.02;;
46407;SDS011;32110;45.724;21.276;2024-02-28T01:14:34;19.30;;;9.75;;
46407;SDS011;32110;45.724;21.276;2024-02-28T01:17:00;20.67;;;8.68;;
46407;SDS011;32110;45.724;21.276;2024-02-28T01:19:25;18.80;;;9.40;;
46407;SDS011;32110;45.724;21.276;2024-02-28T01:21:50;18.20;;;9.27;;
46407;SDS011;32110;45.724;21.276;2024-02-28T01:24:16;20.63;;;9.75;;
46407;SDS011;32110;45.724;21.276;2024-02-28T01:26:41;17.13;;;9.27;;
46407;SDS011;32110;45.724;21.276;2024-02-28T01:29:06;20.52;;;10.20;;
46407;SDS011;32110;45.724;21.276;2024-02-28T01:31:32;24.38;;;10.23;;
46407;SDS011;32110;45.724;21.276;2024-02-28T01:33:57;23.73;;;10.38;;
46407;SDS011;32110;45.724;21.276;2024-02-28T01:36:23;22.67;;;9.93;;
46407;SDS011;32110;45.724;21.276;2024-02-28T01:38:48;22.17;;;9.98;;
46407;SDS011;32110;45.724;21.276;2024-02-28T01:41:13;21.48;;;9.57;;
46407;SDS011;32110;45.724;21.276;2024-02-28T01:43:39;17.85;;;9.95;;
46407;SDS011;32110;45.724;21.276;2024-02-28T01:46:06;19.40;;;9.65;;
46407;SDS011;32110;45.724;21.276;2024-02-28T01:48:35;18.75;;;9.40;;
46407;SDS011;32110;45.724;21.276;2024-02-28T01:51:01;20.67;;;9.57;;
46407;SDS011;32110;45.724;21.276;2024-02-28T01:53:27;22.00;;;9.45;;
46407;SDS011;32110;45.724;21.276;2024-02-28T01:55:52;24.05;;;8.82;;
46407;SDS011;32110;45.724;21.276;2024-02-28T01:58:18;24.48;;;8.88;;
46407;SDS011;32110;45.724;21.276;2024-02-28T02:00:44;19.35;;;8.50;;
46407;SDS011;32110;45.724;21.276;2024-02-28T02:03:11;22.38;;;8.45;;
46407;SDS011;32110;45.724;21.276;2024-02-28T02:05:36;20.27;;;8.95;;
46407;SDS011;32110;45.724;21.276;2024-02-28T02:08:01;19.80;;;7.80;;
46407;SDS011;32110;45.724;21.276;2024-02-28T02:10:27;19.90;;;8.65;;
46407;SDS011;32110;45.724;21.276;2024-02-28T02:12:52;17.30;;;8.23;;
46407;SDS011;32110;45.724;21.276;2024-02-28T02:15:18;18.60;;;8.07;;
46407;SDS011;32110;45.724;21.276;2024-02-28T02:17:43;16.77;;;8.13;;
46407;SDS011;32110;45.724;21.276;2024-02-28T02:20:09;17.73;;;7.80;;
46407;SDS011;32110;45.724;21.276;2024-02-28T02:22:39;18.00;;;8.00;;
46407;SDS011;32110;45.724;21.276;2024-02-28T02:25:05;24.98;;;8.50;;
46407;SDS011;32110;45.724;21.276;2024-02-28T02:27:30;20.75;;;8.68;;
46407;SDS011;32110;45.724;21.276;2024-02-28T02:29:56;14.70;;;7.05;;
46407;SDS011;32110;45.724;21.276;2024-02-28T02:32:21;17.48;;;7.97;;
46407;SDS011;32110;45.724;21.276;2024-02-28T02:34:46;14.23;;;7.18;;
46407;SDS011;32110;45.724;21.276;2024-02-28T02:37:12;17.15;;;7.25;;
46407;SDS011;32110;45.724;21.276;2024-02-28T02:39:37;16.27;;;7.38;;
46407;SDS011;32110;45.724;21.276;2024-02-28T02:42:02;17.27;;;7.50;;
46407;SDS011;32110;45.724;21.276;2024-02-28T02:44:28;20.92;;;8.63;;
46407;SDS011;32110;45.724;21.276;2024-02-28T02:46:53;17.35;;;7.38;;
46407;SDS011;32110;45.724;21.276;2024-02-28T02:49:18;14.18;;;7.25;;
46407;SDS011;32110;45.724;21.276;2024-02-28T02:51:44;15.70;;;7.63;;
46407;SDS011;32110;45.724;21.276;2024-02-28T02:54:09;18.02;;;7.70;;
46407;SDS011;32110;45.724;21.276;2024-02-28T02:56:34;16.98;;;7.60;;
46407;SDS011;32110;45.724;21.276;2024-02-28T02:58:59;19.70;;;7.38;;
46407;SDS011;32110;45.724;21.276;2024-02-28T03:01:25;15.52;;;7.68;;
46407;SDS011;32110;45.724;21.276;2024-02-28T03:03:50;16.80;;;7.53;;
46407;SDS011;32110;45.724;21.276;2024-02-28T03:06:16;20.27;;;8.52;;
46407;SDS011;32110;45.724;21.276;2024-02-28T03:08:42;20.00;;;9.20;;
46407;SDS011;32110;45.724;21.276;2024-02-28T03:11:07;19.70;;;8.15;;
46407;SDS011;32110;45.724;21.276;2024-02-28T03:13:33;18.80;;;8.02;;
46407;SDS011;32110;45.724;21.276;2024-02-28T03:15:59;21.52;;;9.07;;
46407;SDS011;32110;45.724;21.276;2024-02-28T03:18:24;20.55;;;9.82;;
46407;SDS011;32110;45.724;21.276;2024-02-28T03:20:50;18.45;;;8.38;;
46407;SDS011;32110;45.724;21.276;2024-02-28T03:23:15;17.00;;;8.15;;
46407;SDS011;32110;45.724;21.276;2024-02-28T03:25:40;18.47;;;7.40;;
46407;SDS011;32110;45.724;21.276;2024-02-28T03:28:06;18.70;;;7.50;;
46407;SDS011;32110;45.724;21.276;2024-02-28T03:30:31;15.93;;;7.32;;
46407;SDS011;32110;45.724;21.276;2024-02-28T03:32:56;18.57;;;8.30;;
46407;SDS011;32110;45.724;21.276;2024-02-28T03:35:22;18.92;;;7.15;;
46407;SDS011;32110;45.724;21.276;2024-02-28T03:37:47;16.10;;;7.80;;
46407;SDS011;32110;45.724;21.276;2024-02-28T03:40:12;19.88;;;7.68;;
46407;SDS011;32110;45.724;21.276;2024-02-28T03:42:39;17.85;;;7.70;;
46407;SDS011;32110;45.724;21.276;2024-02-28T03:45:05;15.95;;;7.65;;
46407;SDS011;32110;45.724;21.276;2024-02-28T03:47:30;17.65;;;7.45;;
46407;SDS011;32110;45.724;21.276;2024-02-28T03:49:55;15.65;;;7.53;;
46407;SDS011;32110;45.724;21.276;2024-02-28T03:52:22;18.50;;;7.60;;
46407;SDS011;32110;45.724;21.276;2024-02-28T03:54:48;19.35;;;7.95;;
46407;SDS011;32110;45.724;21.276;2024-02-28T03:57:13;14.15;;;6.75;;
46407;SDS011;32110;45.724;21.276;2024-02-28T03:59:38;13.77;;;6.78;;
46407;SDS011;32110;45.724;21.276;2024-02-28T04:02:05;17.23;;;7.13;;
46407;SDS011;32110;45.724;21.276;2024-02-28T04:04:30;18.67;;;7.30;;
46407;SDS011;32110;45.724;21.276;2024-02-28T04:06:56;18.60;;;7.75;;
46407;SDS011;32110;45.724;21.276;2024-02-28T04:09:21;16.75;;;7.72;;
46407;SDS011;32110;45.724;21.276;2024-02-28T04:11:47;17.98;;;7.78;;
46407;SDS011;32110;45.724;21.276;2024-02-28T04:14:12;19.40;;;7.40;;
46407;SDS011;32110;45.724;21.276;2024-02-28T04:16:41;19.48;;;8.05;;
46407;SDS011;32110;45.724;21.276;2024-02-28T04:19:06;22.63;;;8.13;;
46407;SDS011;32110;45.724;21.276;2024-02-28T04:21:32;17.73;;;8.00;;
46407;SDS011;32110;45.724;21.276;2024-02-28T04:23:57;21.27;;;7.60;;
46407;SDS011;32110;45.724;21.276;2024-02-28T04:26:22;24.93;;;7.80;;
46407;SDS011;32110;45.724;21.276;2024-02-28T04:28:47;17.70;;;7.32;;
46407;SDS011;32110;45.724;21.276;2024-02-28T04:31:13;17.67;;;7.35;;
46407;SDS011;32110;45.724;21.276;2024-02-28T04:33:38;16.70;;;7.45;;
46407;SDS011;32110;45.724;21.276;2024-02-28T04:36:03;15.80;;;7.32;;
46407;SDS011;32110;45.724;21.276;2024-02-28T04:38:30;19.40;;;7.78;;
46407;SDS011;32110;45.724;21.276;2024-02-28T04:40:55;17.92;;;6.90;;
46407;SDS011;32110;45.724;21.276;2024-02-28T04:43:20;21.27;;;6.90;;
46407;SDS011;32110;45.724;21.276;2024-02-28T04:45:46;18.58;;;7.10;;
46407;SDS011;32110;45.724;21.276;2024-02-28T04:48:11;19.58;;;7.45;;
46407;SDS011;32110;45.724;21.276;2024-02-28T04:50:36;19.47;;;7.67;;
46407;SDS011;32110;45.724;21.276;2024-02-28T04:53:01;22.90;;;7.33;;
46407;SDS011;32110;45.724;21.276;2024-02-28T04:55:27;20.17;;;7.65;;
46407;SDS011;32110;45.724;21.276;2024-02-28T04:57:52;17.40;;;7.25;;
46407;SDS011;32110;45.724;21.276;2024-02-28T05:00:17;18.57;;;7.47;;
46407;SDS011;32110;45.724;21.276;2024-02-28T05:02:43;20.27;;;7.47;;
46407;SDS011;32110;45.724;21.276;2024-02-28T05:05:08;17.30;;;7.57;;
46407;SDS011;32110;45.724;21.276;2024-02-28T05:07:33;14.98;;;7.60;;
46407;SDS011;32110;45.724;21.276;2024-02-28T05:09:59;18.55;;;8.07;;
46407;SDS011;32110;45.724;21.276;2024-02-28T05:12:24;17.08;;;7.85;;
46407;SDS011;32110;45.724;21.276;2024-02-28T05:14:50;21.48;;;8.07;;
46407;SDS011;32110;45.724;21.276;2024-02-28T05:17:15;23.75;;;8.15;;
46407;SDS011;32110;45.724;21.276;2024-02-28T05:19:42;19.85;;;6.97;;
46407;SDS011;32110;45.724;21.276;2024-02-28T05:22:07;13.07;;;6.97;;
46407;SDS011;32110;45.724;21.276;2024-02-28T05:24:34;16.85;;;7.25;;
46407;SDS011;32110;45.724;21.276;2024-02-28T05:27:00;16.70;;;6.93;;
46407;SDS011;32110;45.724;21.276;2024-02-28T05:29:25;16.27;;;6.47;;
46407;SDS011;32110;45.724;21.276;2024-02-28T05:31:51;19.63;;;7.40;;
46407;SDS011;32110;45.724;21.276;2024-02-28T05:34:16;17.42;;;7.35;;
46407;SDS011;32110;45.724;21.276;2024-02-28T05:36:42;20.92;;;8.38;;
46407;SDS011;32110;45.724;21.276;2024-02-28T05:39:07;17.02;;;7.45;;
46407;SDS011;32110;45.724;21.276;2024-02-28T05:41:33;24.48;;;8.35;;
46407;SDS011;32110;45.724;21.276;2024-02-28T05:43:59;19.85;;;7.53;;
46407;SDS011;32110;45.724;21.276;2024-02-28T05:46:24;17.80;;;6.95;;
46407;SDS011;32110;45.724;21.276;2024-02-28T05:48:50;18.42;;;7.97;;
46407;SDS011;32110;45.724;21.276;2024-02-28T05:51:15;19.75;;;7.65;;
46407;SDS011;32110;45.724;21.276;2024-02-28T05:53:41;16.80;;;7.93;;
46407;SDS011;32110;45.724;21.276;2024-02-28T05:56:08;18.02;;;7.80;;
46407;SDS011;32110;45.724;21.276;2024-02-28T05:58:45;23.17;;;8.80;;
46407;SDS011;32110;45.724;21.276;2024-02-28T06:01:12;17.63;;;7.78;;
46407;SDS011;32110;45.724;21.276;2024-02-28T06:03:40;20.57;;;7.83;;
46407;SDS011;32110;45.724;21.276;2024-02-28T06:06:05;18.92;;;8.40;;
46407;SDS011;32110;45.724;21.276;2024-02-28T06:08:35;20.25;;;8.15;;
46407;SDS011;32110;45.724;21.276;2024-02-28T06:11:03;25.85;;;8.25;;
46407;SDS011;32110;45.724;21.276;2024-02-28T06:13:28;24.73;;;7.82;;
46407;SDS011;32110;45.724;21.276;2024-02-28T06:15:54;18.05;;;7.45;;
46407;SDS011;32110;45.724;21.276;2024-02-28T06:18:20;23.60;;;8.15;;
46407;SDS011;32110;45.724;21.276;2024-02-28T06:20:48;20.40;;;8.48;;
46407;SDS011;32110;45.724;21.276;2024-02-28T06:23:13;18.40;;;8.07;;
46407;SDS011;32110;45.724;21.276;2024-02-28T06:25:39;21.38;;;8.15;;
46407;SDS011;32110;45.724;21.276;2024-02-28T06:28:04;21.35;;;7.72;;
46407;SDS011;32110;45.724;21.276;2024-02-28T06:30:32;21.60;;;8.63;;
46407;SDS011;32110;45.724;21.276;2024-02-28T06:33:01;19.77;;;8.30;;
46407;SDS011;32110;45.724;21.276;2024-02-28T06:35:27;20.50;;;8.80;;
46407;SDS011;32110;45.724;21.276;2024-02-28T06:37:52;17.63;;;8.23;;
46407;SDS011;32110;45.724;21.276;2024-02-28T06:40:18;22.08;;;8.55;;
46407;SDS011;32110;45.724;21.276;2024-02-28T06:42:43;23.15;;;9.35;;
46407;SDS011;32110;45.724;21.276;2024-02-28T06:45:09;27.05;;;9.88;;
46407;SDS011;32110;45.724;21.276;2024-02-28T06:47:34;26.70;;;10.45;;
46407;SDS011;32110;45.724;21.276;2024-02-28T06:50:02;26.88;;;10.60;;
46407;SDS011;32110;45.724;21.276;2024-02-28T06:52:28;28.38;;;11.25;;
46407;SDS011;32110;45.724;21.276;2024-02-28T06:54:53;28.90;;;13.35;;
46407;SDS011;32110;45.724;21.276;2024-02-28T06:57:19;37.03;;;13.10;;
46407;SDS011;32110;45.724;21.276;2024-02-28T06:59:44;36.38;;;13.52;;
46407;SDS011;32110;45.724;21.276;2024-02-28T07:02:10;34.78;;;13.45;;
46407;SDS011;32110;45.724;21.276;2024-02-28T07:04:35;29.00;;;13.35;;
46407;SDS011;32110;45.724;21.276;2024-02-28T07:07:01;36.28;;;13.20;;
46407;SDS011;32110;45.724;21.276;2024-02-28T07:09:26;30.15;;;13.07;;
46407;SDS011;32110;45.724;21.276;2024-02-28T07:11:54;34.58;;;12.23;;
46407;SDS011;32110;45.724;21.276;2024-02-28T07:14:20;35.13;;;12.25;;
46407;SDS011;32110;45.724;21.276;2024-02-28T07:16:45;36.58;;;11.05;;
46407;SDS011;32110;45.724;21.276;2024-02-28T07:19:10;31.35;;;10.07;;
46407;SDS011;32110;45.724;21.276;2024-02-28T07:21:36;24.20;;;9.43;;
46407;SDS011;32110;45.724;21.276;2024-02-28T07:24:02;18.98;;;7.97;;
46407;SDS011;32110;45.724;21.276;2024-02-28T07:26:29;22.35;;;7.88;;
46407;SDS011;32110;45.724;21.276;2024-02-28T07:28:55;23.27;;;8.10;;
46407;SDS011;32110;45.724;21.276;2024-02-28T07:31:20;26.10;;;7.90;;
46407;SDS011;32110;45.724;21.276;2024-02-28T07:33:47;17.50;;;8.18;;
46407;SDS011;32110;45.724;21.276;2024-02-28T07:36:12;29.42;;;8.20;;
46407;SDS011;32110;45.724;21.276;2024-02-28T07:38:38;19.90;;;8.10;;
46407;SDS011;32110;45.724;21.276;2024-02-28T07:41:03;21.15;;;8.30;;
46407;SDS011;32110;45.724;21.276;2024-02-28T07:43:29;19.35;;;8.00;;
46407;SDS011;32110;45.724;21.276;2024-02-28T07:45:58;22.13;;;8.88;;
46407;SDS011;32110;45.724;21.276;2024-02-28T07:48:24;27.17;;;9.32;;
46407;SDS011;32110;45.724;21.276;2024-02-28T07:50:49;28.25;;;9.77;;
46407;SDS011;32110;45.724;21.276;2024-02-28T07:53:15;22.13;;;8.90;;
46407;SDS011;32110;45.724;21.276;2024-02-28T07:55:42;22.13;;;9.00;;
46407;SDS011;32110;45.724;21.276;2024-02-28T07:58:07;21.80;;;9.38;;
46407;SDS011;32110;45.724;21.276;2024-02-28T08:00:34;25.73;;;10.30;;
46407;SDS011;32110;45.724;21.276;2024-02-28T08:03:00;33.10;;;11.13;;
46407;SDS011;32110;45.724;21.276;2024-02-28T08:05:25;25.67;;;9.73;;
46407;SDS011;32110;45.724;21.276;2024-02-28T08:07:50;24.17;;;10.27;;
46407;SDS011;32110;45.724;21.276;2024-02-28T08:10:16;21.48;;;9.13;;
46407;SDS011;32110;45.724;21.276;2024-02-28T08:12:41;25.13;;;10.43;;
46407;SDS011;32110;45.724;21.276;2024-02-28T08:15:07;19.92;;;10.27;;
46407;SDS011;32110;45.724;21.276;2024-02-28T08:17:33;21.02;;;9.13;;
46407;SDS011;32110;45.724;21.276;2024-02-28T08:19:59;21.50;;;9.43;;
46407;SDS011;32110;45.724;21.276;2024-02-28T08:22:24;19.50;;;10.48;;
46407;SDS011;32110;45.724;21.276;2024-02-28T08:24:53;22.65;;;9.88;;
46407;SDS011;32110;45.724;21.276;2024-02-28T08:27:18;22.80;;;10.20;;
46407;SDS011;32110;45.724;21.276;2024-02-28T08:29:45;22.05;;;8.70;;
46407;SDS011;32110;45.724;21.276;2024-02-28T08:32:12;19.65;;;8.88;;
46407;SDS011;32110;45.724;21.276;2024-02-28T08:34:38;18.77;;;8.85;;
46407;SDS011;32110;45.724;21.276;2024-02-28T08:37:03;17.55;;;8.30;;
46407;SDS011;32110;45.724;21.276;2024-02-28T08:39:29;19.25;;;7.65;;
46407;SDS011;32110;45.724;21.276;2024-02-28T08:41:54;19.10;;;8.48;;
46407;SDS011;32110;45.724;21.276;2024-02-28T08:44:20;24.65;;;8.70;;
46407;SDS011;32110;45.724;21.276;2024-02-28T08:46:48;18.00;;;8.05;;
46407;SDS011;32110;45.724;21.276;2024-02-28T08:49:14;17.92;;;7.63;;
46407;SDS011;32110;45.724;21.276;2024-02-28T08:51:40;17.17;;;8.20;;
46407;SDS011;32110;45.724;21.276;2024-02-28T08:54:05;15.68;;;7.45;;
46407;SDS011;32110;45.724;21.276;2024-02-28T08:56:31;20.05;;;7.50;;
46407;SDS011;32110;45.724;21.276;2024-02-28T08:58:58;14.20;;;7.13;;
46407;SDS011;32110;45.724;21.276;2024-02-28T09:01:23;13.75;;;7.55;;
46407;SDS011;32110;45.724;21.276;2024-02-28T09:03:49;17.63;;;8.20;;
46407;SDS011;32110;45.724;21.276;2024-02-28T09:06:15;14.05;;;7.15;;
46407;SDS011;32110;45.724;21.276;2024-02-28T09:08:40;17.65;;;8.05;;
46407;SDS011;32110;45.724;21.276;2024-02-28T09:11:06;15.93;;;7.72;;
46407;SDS011;32110;45.724;21.276;2024-02-28T09:13:31;20.48;;;8.30;;
46407;SDS011;32110;45.724;21.276;2024-02-28T09:15:57;18.33;;;7.65;;
46407;SDS011;32110;45.724;21.276;2024-02-28T09:18:22;14.38;;;7.82;;
46407;SDS011;32110;45.724;21.276;2024-02-28T09:20:48;15.02;;;7.25;;
46407;SDS011;32110;45.724;21.276;2024-02-28T09:23:13;16.23;;;7.70;;
46407;SDS011;32110;45.724;21.276;2024-02-28T09:25:39;13.80;;;6.78;;
46407;SDS011;32110;45.724;21.276;2024-02-28T09:28:05;17.40;;;7.22;;
46407;SDS011;32110;45.724;21.276;2024-02-28T09:30:30;12.75;;;6.47;;
46407;SDS011;32110;45.724;21.276;2024-02-28T09:32:56;14.93;;;6.55;;
46407;SDS011;32110;45.724;21.276;2024-02-28T09:35:22;14.35;;;6.82;;
46407;SDS011;32110;45.724;21.276;2024-02-28T09:37:47;15.02;;;6.35;;
46407;SDS011;32110;45.724;21.276;2024-02-28T09:40:13;14.40;;;6.70;;
46407;SDS011;32110;45.724;21.276;2024-02-28T09:42:38;16.15;;;6.50;;
46407;SDS011;32110;45.724;21.276;2024-02-28T09:45:04;14.85;;;6.50;;
46407;SDS011;32110;45.724;21.276;2024-02-28T09:47:35;17.10;;;5.80;;
46407;SDS011;32110;45.724;21.276;2024-02-28T09:50:00;15.25;;;6.68;;
46407;SDS011;32110;45.724;21.276;2024-02-28T09:52:27;17.75;;;6.32;;
46407;SDS011;32110;45.724;21.276;2024-02-28T09:54:53;16.65;;;5.95;;
46407;SDS011;32110;45.724;21.276;2024-02-28T09:57:19;12.73;;;5.80;;
46407;SDS011;32110;45.724;21.276;2024-02-28T09:59:45;12.10;;;5.50;;
46407;SDS011;32110;45.724;21.276;2024-02-28T10:02:11;17.70;;;5.78;;
46407;SDS011;32110;45.724;21.276;2024-02-28T10:04:40;12.65;;;5.35;;
46407;SDS011;32110;45.724;21.276;2024-02-28T10:07:12;10.88;;;4.57;;
46407;SDS011;32110;45.724;21.276;2024-02-28T10:09:38;11.73;;;5.10;;
46407;SDS011;32110;45.724;21.276;2024-02-28T10:12:04;14.02;;;4.90;;
46407;SDS011;32110;45.724;21.276;2024-02-28T10:14:30;10.85;;;4.82;;
46407;SDS011;32110;45.724;21.276;2024-02-28T10:16:55;7.63;;;4.55;;
46407;SDS011;32110;45.724;21.276;2024-02-28T10:19:21;13.68;;;5.25;;
46407;SDS011;32110;45.724;21.276;2024-02-28T10:21:46;8.20;;;4.90;;
46407;SDS011;32110;45.724;21.276;2024-02-28T10:24:12;12.90;;;4.80;;
46407;SDS011;32110;45.724;21.276;2024-02-28T10:26:47;8.70;;;4.60;;
46407;SDS011;32110;45.724;21.276;2024-02-28T10:29:24;12.27;;;5.00;;
46407;SDS011;32110;45.724;21.276;2024-02-28T10:31:57;15.63;;;5.57;;
46407;SDS011;32110;45.724;21.276;2024-02-28T10:34:23;9.60;;;4.50;;
46407;SDS011;32110;45.724;21.276;2024-02-28T10:36:49;10.43;;;4.60;;
46407;SDS011;32110;45.724;21.276;2024-02-28T10:39:14;13.60;;;4.75;;
46407;SDS011;32110;45.724;21.276;2024-02-28T10:41:41;8.32;;;4.57;;
46407;SDS011;32110;45.724;21.276;2024-02-28T10:44:07;15.68;;;4.93;;
46407;SDS011;32110;45.724;21.276;2024-02-28T10:46:35;10.98;;;4.72;;
46407;SDS011;32110;45.724;21.276;2024-02-28T10:49:03;8.80;;;4.30;;
46407;SDS011;32110;45.724;21.276;2024-02-28T10:51:29;9.85;;;4.60;;
46407;SDS011;32110;45.724;21.276;2024-02-28T10:56:25;12.95;;;4.47;;
46407;SDS011;32110;45.724;21.276;2024-02-28T10:58:56;11.07;;;4.22;;
46407;SDS011;32110;45.724;21.276;2024-02-28T11:01:24;9.80;;;4.65;;
46407;SDS011;32110;45.724;21.276;2024-02-28T11:03:50;12.27;;;4.80;;
46407;SDS011;32110;45.724;21.276;2024-02-28T11:06:17;9.65;;;4.03;;
46407;SDS011;32110;45.724;21.276;2024-02-28T11:08:45;11.30;;;4.45;;
46407;SDS011;32110;45.724;21.276;2024-02-28T11:11:13;9.68;;;4.40;;
46407;SDS011;32110;45.724;21.276;2024-02-28T11:13:39;12.27;;;5.60;;
46407;SDS011;32110;45.724;21.276;2024-02-28T11:16:08;8.13;;;4.07;;
46407;SDS011;32110;45.724;21.276;2024-02-28T11:18:34;10.65;;;4.25;;
46407;SDS011;32110;45.724;21.276;2024-02-28T11:20:59;8.10;;;4.28;;
46407;SDS011;32110;45.724;21.276;2024-02-28T11:23:25;14.48;;;5.38;;
46407;SDS011;32110;45.724;21.276;2024-02-28T11:25:51;10.25;;;4.03;;
46407;SDS011;32110;45.724;21.276;2024-02-28T11:28:17;10.15;;;4.90;;
46407;SDS011;32110;45.724;21.276;2024-02-28T11:30:42;19.08;;;5.25;;
46407;SDS011;32110;45.724;21.276;2024-02-28T11:33:08;10.35;;;4.65;;
46407;SDS011;32110;45.724;21.276;2024-02-28T11:35:34;13.63;;;4.85;;
46407;SDS011;32110;45.724;21.276;2024-02-28T11:38:00;9.90;;;4.20;;
46407;SDS011;32110;45.724;21.276;2024-02-28T11:40:26;11.25;;;4.65;;
46407;SDS011;32110;45.724;21.276;2024-02-28T11:42:52;11.30;;;4.78;;
46407;SDS011;32110;45.724;21.276;2024-02-28T11:45:19;10.63;;;4.90;;
46407;SDS011;32110;45.724;21.276;2024-02-28T11:47:45;10.48;;;4.30;;
46407;SDS011;32110;45.724;21.276;2024-02-28T11:50:11;11.73;;;4.63;;
46407;SDS011;32110;45.724;21.276;2024-02-28T11:52:36;12.98;;;5.00;;
46407;SDS011;32110;45.724;21.276;2024-02-28T11:55:02;17.20;;;5.80;;
46407;SDS011;32110;45.724;21.276;2024-02-28T11:57:28;9.68;;;4.57;;
46407;SDS011;32110;45.724;21.276;2024-02-28T11:59:58;9.90;;;4.55;;
46407;SDS011;32110;45.724;21.276;2024-02-28T12:02:28;10.68;;;4.25;;
46407;SDS011;32110;45.724;21.276;2024-02-28T12:04:55;12.10;;;4.38;;
46407;SDS011;32110;45.724;21.276;2024-02-28T12:07:25;9.30;;;4.32;;
46407;SDS011;32110;45.724;21.276;2024-02-28T12:09:51;11.98;;;4.60;;
46407;SDS011;32110;45.724;21.276;2024-02-28T12:12:19;13.27;;;4.85;;
46407;SDS011;32110;45.724;21.276;2024-02-28T12:14:45;10.07;;;4.63;;
46407;SDS011;32110;45.724;21.276;2024-02-28T12:17:11;13.18;;;4.95;;
46407;SDS011;32110;45.724;21.276;2024-02-28T12:19:36;9.32;;;4.47;;
46407;SDS011;32110;45.724;21.276;2024-02-28T12:22:02;8.85;;;4.57;;
46407;SDS011;32110;45.724;21.276;2024-02-28T12:24:29;10.88;;;4.90;;
46407;SDS011;32110;45.724;21.276;2024-02-28T12:26:54;12.30;;;4.70;;
46407;SDS011;32110;45.724;21.276;2024-02-28T12:29:20;11.50;;;4.82;;
46407;SDS011;32110;45.724;21.276;2024-02-28T12:31:45;12.20;;;4.70;;
46407;SDS011;32110;45.724;21.276;2024-02-28T12:34:10;9.53;;;4.30;;
46407;SDS011;32110;45.724;21.276;2024-02-28T12:36:36;13.27;;;4.57;;
46407;SDS011;32110;45.724;21.276;2024-02-28T12:39:01;9.75;;;5.13;;
46407;SDS011;32110;45.724;21.276;2024-02-28T12:41:27;10.98;;;4.93;;
46407;SDS011;32110;45.724;21.276;2024-02-28T12:43:53;12.27;;;4.18;;
46407;SDS011;32110;45.724;21.276;2024-02-28T12:46:18;10.73;;;4.80;;
46407;SDS011;32110;45.724;21.276;2024-02-28T12:48:43;9.47;;;4.67;;
46407;SDS011;32110;45.724;21.276;2024-02-28T12:51:10;10.60;;;4.70;;
46407;SDS011;32110;45.724;21.276;2024-02-28T12:53:45;9.63;;;4.82;;
46407;SDS011;32110;45.724;21.276;2024-02-28T12:56:11;9.77;;;4.38;;
46407;SDS011;32110;45.724;21.276;2024-02-28T12:58:36;12.77;;;4.30;;
46407;SDS011;32110;45.724;21.276;2024-02-28T13:01:03;14.40;;;4.93;;
46407;SDS011;32110;45.724;21.276;2024-02-28T13:03:29;9.90;;;4.47;;
46407;SDS011;32110;45.724;21.276;2024-02-28T13:05:55;13.38;;;5.03;;
46407;SDS011;32110;45.724;21.276;2024-02-28T13:08:20;11.30;;;4.32;;
46407;SDS011;32110;45.724;21.276;2024-02-28T13:10:46;13.85;;;4.97;;
46407;SDS011;32110;45.724;21.276;2024-02-28T13:13:11;6.88;;;4.35;;
46407;SDS011;32110;45.724;21.276;2024-02-28T13:15:37;8.48;;;4.15;;
46407;SDS011;32110;45.724;21.276;2024-02-28T13:18:03;13.98;;;4.15;;
46407;SDS011;32110;45.724;21.276;2024-02-28T13:20:33;8.13;;;4.20;;
46407;SDS011;32110;45.724;21.276;2024-02-28T13:22:58;11.65;;;4.32;;
46407;SDS011;32110;45.724;21.276;2024-02-28T13:25:24;13.07;;;5.35;;
46407;SDS011;32110;45.724;21.276;2024-02-28T13:27:49;10.25;;;4.70;;
46407;SDS011;32110;45.724;21.276;2024-02-28T13:30:14;8.70;;;4.65;;
46407;SDS011;32110;45.724;21.276;2024-02-28T13:32:40;9.80;;;4.78;;
46407;SDS011;32110;45.724;21.276;2024-02-28T13:35:05;11.63;;;4.57;;
46407;SDS011;32110;45.724;21.276;2024-02-28T13:37:32;12.90;;;4.50;;
46407;SDS011;32110;45.724;21.276;2024-02-28T13:39:58;9.10;;;4.25;;
46407;SDS011;32110;45.724;21.276;2024-02-28T13:42:24;12.35;;;4.82;;
46407;SDS011;32110;45.724;21.276;2024-02-28T13:44:49;11.77;;;4.80;;
46407;SDS011;32110;45.724;21.276;2024-02-28T13:47:15;10.43;;;5.00;;
46407;SDS011;32110;45.724;21.276;2024-02-28T13:49:40;10.85;;;4.63;;
46407;SDS011;32110;45.724;21.276;2024-02-28T13:52:06;10.73;;;4.90;;
46407;SDS011;32110;45.724;21.276;2024-02-28T13:54:31;9.98;;;4.80;;
46407;SDS011;32110;45.724;21.276;2024-02-28T13:56:57;9.32;;;4.50;;
46407;SDS011;32110;45.724;21.276;2024-02-28T13:59:23;9.60;;;4.32;;
46407;SDS011;32110;45.724;21.276;2024-02-28T14:01:48;15.07;;;4.32;;
46407;SDS011;32110;45.724;21.276;2024-02-28T14:04:14;8.40;;;3.90;;
46407;SDS011;32110;45.724;21.276;2024-02-28T14:06:40;13.55;;;4.85;;
46407;SDS011;32110;45.724;21.276;2024-02-28T14:09:05;8.50;;;4.60;;
46407;SDS011;32110;45.724;21.276;2024-02-28T14:11:31;9.45;;;4.60;;
46407;SDS011;32110;45.724;21.276;2024-02-28T14:13:57;12.45;;;4.25;;
46407;SDS011;32110;45.724;21.276;2024-02-28T14:16:22;9.35;;;4.35;;